Time;durP1;ratioP1;P1;durP2;ratioP2;P2;SDS_P1;SDS_P2;PMS_P1;PMS_P2;Temp;Humidity;BMP_temperature;BMP_pressure;BME280_temperature;BME280_humidity;BME280_pressure;Samples;Min_cycle;Max_cycle;Signal;HPM_P1;HPM_P2
2021/03/25 05:11:34;;;;;;;1.20;1.20;;;5.60;99.90;;;;;;5430413;23;20727;-75
2021/03/25 05:14:12;;;;;;;1.27;1.27;;;5.60;99.90;;;;;;4995873;28;20208;-74
2021/03/25 05:16:46;;;;;;;1.23;1.23;;;5.60;99.90;;;;;;4995664;28;20210;-74
2021/03/25 05:19:22;;;;;;;1.10;1.10;;;5.50;99.90;;;;;;4995889;28;20339;-74
2021/03/25 05:21:59;;;;;;;1.27;1.27;;;5.80;99.90;;;;;;4995669;28;20278;-74
2021/03/25 05:24:34;;;;;;;1.10;1.10;;;5.80;99.90;;;;;;4995576;28;20208;-74
2021/03/25 05:27:08;;;;;;;1.20;1.20;;;5.80;99.90;;;;;;4995920;28;20668;-75
2021/03/25 05:29:38;;;;;;;1.10;1.10;;;5.90;99.90;;;;;;4995758;28;20203;-75
2021/03/25 05:32:07;;;;;;;1.20;1.20;;;5.90;99.90;;;;;;4987551;28;20229;-75
2021/03/25 05:34:37;;;;;;;1.10;1.10;;;5.90;99.90;;;;;;4977320;28;20209;-75
2021/03/25 05:37:06;;;;;;;1.10;1.10;;;6.50;99.90;;;;;;4995412;28;20250;-77
2021/03/25 05:39:34;;;;;;;1.10;1.10;;;6.10;99.90;;;;;;4997721;28;20204;-77
2021/03/25 05:42:23;;;;;;;1.10;1.10;;;6.10;99.90;;;;;;4998220;28;20228;-76
2021/03/25 05:45:20;;;;;;;1.00;1.00;;;6.10;99.90;;;;;;4995673;28;20294;-77
2021/03/25 05:48:12;;;;;;;1.10;1.10;;;6.10;99.90;;;;;;4995189;28;20267;-74
2021/03/25 05:50:48;;;;;;;1.10;1.10;;;6.20;99.90;;;;;;4995728;28;20278;-77
2021/03/25 05:53:30;;;;;;;1.10;1.10;;;6.40;99.90;;;;;;4997318;28;20235;-77
2021/03/25 05:56:05;;;;;;;1.10;1.10;;;6.30;99.90;;;;;;4995401;28;20211;-75
2021/03/25 05:58:37;;;;;;;1.27;1.27;;;6.30;99.90;;;;;;4994784;28;20200;-75
2021/03/25 06:01:31;;;;;;;1.00;1.00;;;6.30;99.90;;;;;;4993601;28;20220;-79
2021/03/25 06:04:03;;;;;;;1.20;1.20;;;6.20;99.90;;;;;;4975009;28;20209;-76
2021/03/25 06:07:11;;;;;;;1.10;1.10;;;6.30;99.90;;;;;;4989591;28;20545;-75
2021/03/25 06:09:50;;;;;;;1.00;1.00;;;6.40;99.90;;;;;;4908538;29;20200;-75
2021/03/25 06:12:25;;;;;;;1.20;1.20;;;6.50;99.90;;;;;;4911847;29;20226;-74
2021/03/25 06:15:05;;;;;;;1.10;1.10;;;6.40;99.90;;;;;;4965276;28;20222;-75
2021/03/25 06:17:55;;;;;;;1.03;1.03;;;6.50;99.90;;;;;;4978780;28;20197;-74
2021/03/25 06:20:49;;;;;;;1.30;1.30;;;6.50;99.90;;;;;;4973871;28;20208;-75
2021/03/25 06:23:43;;;;;;;1.13;1.13;;;6.60;99.90;;;;;;4972559;28;20208;-74
2021/03/25 06:26:21;;;;;;;1.20;1.20;;;6.70;99.90;;;;;;4972163;28;20592;-75
2021/03/25 06:28:51;;;;;;;1.20;1.20;;;6.80;99.90;;;;;;4972174;28;20228;-75
2021/03/25 06:31:30;;;;;;;1.03;1.03;;;7.00;99.90;;;;;;4972697;28;20224;-74
2021/03/25 06:34:07;;;;;;;1.10;1.10;;;7.00;99.90;;;;;;4972392;28;20211;-75
2021/03/25 06:36:45;;;;;;;1.00;1.00;;;7.00;99.90;;;;;;4971958;28;20200;-74
2021/03/25 06:39:22;;;;;;;1.30;1.30;;;7.10;99.90;;;;;;4973683;28;20680;-75
2021/03/25 06:41:58;;;;;;;1.20;1.20;;;7.20;99.90;;;;;;4974295;28;20605;-75
2021/03/25 06:44:35;;;;;;;1.10;1.10;;;7.20;99.90;;;;;;4974110;28;20217;-75
2021/03/25 06:47:11;;;;;;;1.00;1.00;;;7.40;99.90;;;;;;4974097;28;20306;-76
2021/03/25 06:49:44;;;;;;;1.07;1.07;;;7.50;99.90;;;;;;4974187;28;20653;-76
2021/03/25 06:52:23;;;;;;;0.90;0.90;;;7.60;99.90;;;;;;4974019;28;20599;-74
2021/03/25 06:54:53;;;;;;;1.00;1.00;;;7.70;99.90;;;;;;4973523;28;20674;-75
2021/03/25 06:57:22;;;;;;;1.00;1.00;;;8.00;99.90;;;;;;4973648;28;20274;-75
2021/03/25 06:59:56;;;;;;;0.90;0.90;;;8.10;99.90;;;;;;4973606;28;20283;-74
2021/03/25 07:02:27;;;;;;;1.00;1.00;;;8.00;99.90;;;;;;4973562;28;20308;-74
2021/03/25 07:04:58;;;;;;;1.02;1.02;;;8.20;99.90;;;;;;4973584;28;20208;-77
2021/03/25 07:07:30;;;;;;;0.90;0.90;;;8.10;99.90;;;;;;4973670;28;20228;-74
2021/03/25 07:09:58;;;;;;;0.80;0.80;;;8.40;99.90;;;;;;4973598;28;20306;-75
2021/03/25 07:12:28;;;;;;;0.90;0.90;;;8.50;99.90;;;;;;4973157;28;20279;-75
2021/03/25 07:14:55;;;;;;;1.02;1.02;;;;;;;;;;4973327;28;20212;-73
2021/03/25 07:17:32;;;;;;;0.70;0.70;;;8.70;99.90;;;;;;4973416;28;20215;-75
2021/03/25 07:20:03;;;;;;;0.90;0.90;;;8.50;99.90;;;;;;4972461;28;20236;-75
2021/03/25 07:22:31;;;;;;;0.95;0.95;;;8.80;99.90;;;;;;4973093;28;20270;-75
2021/03/25 07:25:18;;;;;;;1.10;1.10;;;8.90;99.90;;;;;;4972881;28;20255;-75
2021/03/25 07:27:46;;;;;;;0.90;0.90;;;;;;;;;;4973218;28;20220;-75
2021/03/25 07:30:46;;;;;;;1.00;1.00;;;9.10;99.90;;;;;;4973034;28;20225;-75
2021/03/25 07:33:15;;;;;;;0.90;0.90;;;8.90;99.90;;;;;;4973495;28;20216;-75
2021/03/25 07:35:45;;;;;;;1.02;1.02;;;9.00;99.90;;;;;;4972801;28;20212;-75
2021/03/25 07:38:23;;;;;;;1.00;1.00;;;8.80;99.90;;;;;;4972785;28;20212;-75
2021/03/25 07:41:05;;;;;;;0.93;0.93;;;9.00;99.90;;;;;;4972841;28;20275;-74
2021/03/25 07:43:52;;;;;;;1.00;1.00;;;8.90;99.90;;;;;;4972701;28;20212;-75
2021/03/25 07:46:22;;;;;;;0.90;0.90;;;9.10;99.90;;;;;;4972784;28;20263;-75
2021/03/25 07:49:05;;;;;;;0.80;0.80;;;9.80;99.90;;;;;;4972812;28;20221;-75
2021/03/25 07:51:47;;;;;;;0.80;0.80;;;9.50;99.90;;;;;;4973302;28;20255;-77
2021/03/25 07:54:25;;;;;;;0.90;0.90;;;9.50;99.90;;;;;;4972440;28;20208;-75
2021/03/25 07:56:55;;;;;;;0.90;0.90;;;9.70;99.90;;;;;;4972924;28;20279;-75
2021/03/25 07:59:38;;;;;;;0.80;0.80;;;9.70;99.90;;;;;;4972876;28;20197;-75
2021/03/25 08:02:23;;;;;;;0.85;0.85;;;9.80;99.90;;;;;;4972864;28;20643;-75
2021/03/25 08:04:51;;;;;;;0.90;0.90;;;9.80;99.90;;;;;;4972590;28;20263;-73
2021/03/25 08:07:20;;;;;;;0.90;0.90;;;9.80;99.90;;;;;;4973056;28;20201;-75
2021/03/25 08:09:51;;;;;;;0.90;0.90;;;9.90;99.90;;;;;;4972694;28;20205;-74
2021/03/25 08:12:28;;;;;;;0.70;0.70;;;10.10;99.90;;;;;;4972540;28;20232;-77
2021/03/25 08:15:28;;;;;;;0.70;0.70;;;10.20;99.90;;;;;;4972101;28;20282;-76
2021/03/25 08:18:24;;;;;;;0.90;0.90;;;10.40;99.90;;;;;;4940528;28;20279;-74
2021/03/25 08:21:03;;;;;;;0.85;0.85;;;10.50;99.90;;;;;;4972376;28;20714;-75
2021/03/25 08:24:00;;;;;;;0.80;0.80;;;10.60;99.90;;;;;;4972317;28;20204;-75
2021/03/25 08:26:32;;;;;;;0.80;0.80;;;10.60;99.90;;;;;;4947739;28;20208;-75
2021/03/25 08:29:08;;;;;;;0.70;0.70;;;11.00;99.90;;;;;;4972474;28;20767;-76
2021/03/25 08:31:40;;;;;;;0.80;0.80;;;10.90;99.90;;;;;;4974172;28;20228;-75
2021/03/25 08:34:27;;;;;;;0.68;0.68;;;11.10;99.90;;;;;;4977121;28;20211;-75
2021/03/25 08:37:18;;;;;;;0.70;0.70;;;11.00;99.90;;;;;;4976431;28;20204;-75
2021/03/25 08:39:52;;;;;;;0.70;0.70;;;11.20;99.90;;;;;;4976476;28;20705;-75
2021/03/25 08:42:26;;;;;;;0.70;0.70;;;11.40;99.90;;;;;;4976296;28;20236;-75
2021/03/25 08:45:04;;;;;;;0.60;0.60;;;11.30;99.90;;;;;;4975848;28;20207;-74
2021/03/25 08:47:37;;;;;;;0.80;0.80;;;11.40;99.90;;;;;;4976327;28;20230;-77
2021/03/25 08:50:30;;;;;;;0.88;0.88;;;11.50;99.90;;;;;;4976007;28;20208;-75
2021/03/25 08:53:01;;;;;;;0.80;0.80;;;11.70;99.90;;;;;;4973815;28;20590;-75
2021/03/25 08:55:32;;;;;;;0.70;0.70;;;11.80;99.90;;;;;;4976247;28;20209;-75
2021/03/25 08:58:05;;;;;;;0.80;0.80;;;12.00;99.90;;;;;;4976699;28;20201;-76
2021/03/25 09:00:35;;;;;;;0.55;0.55;;;12.00;98.20;;;;;;4975976;28;20228;-76
2021/03/25 09:03:06;;;;;;;0.70;0.70;;;12.20;99.90;;;;;;4976094;28;20633;-76
2021/03/25 09:05:38;;;;;;;0.70;0.70;;;12.40;99.90;;;;;;4975771;28;20205;-75
2021/03/25 09:08:12;;;;;;;0.80;0.80;;;12.00;99.90;;;;;;4976062;28;20271;-75
2021/03/25 09:10:43;;;;;;;0.60;0.60;;;12.20;99.90;;;;;;4975708;28;20322;-75
2021/03/25 09:13:14;;;;;;;0.70;0.70;;;12.20;99.90;;;;;;4975707;28;20216;-75
2021/03/25 09:15:42;;;;;;;0.70;0.70;;;12.40;99.90;;;;;;4975768;28;20193;-76
2021/03/25 09:18:13;;;;;;;0.60;0.60;;;12.50;99.90;;;;;;4975915;28;20201;-76
2021/03/25 09:20:52;;;;;;;0.70;0.70;;;12.50;99.90;;;;;;4975669;28;20228;-75
2021/03/25 09:24:01;;;;;;;0.70;0.70;;;12.80;96.00;;;;;;4975672;28;20200;-76
2021/03/25 09:26:57;;;;;;;0.60;0.60;;;12.80;99.90;;;;;;4975371;28;20204;-76
2021/03/25 09:29:27;;;;;;;0.70;0.70;;;12.90;95.70;;;;;;4975270;28;20220;-76
2021/03/25 09:32:33;;;;;;;0.70;0.70;;;13.10;95.50;;;;;;4975308;28;20248;-76
2021/03/25 09:35:20;;;;;;;0.50;0.50;;;13.10;95.40;;;;;;4975137;28;20476;-76
2021/03/25 09:37:53;;;;;;;0.50;0.50;;;13.20;94.50;;;;;;4975250;28;20205;-75
2021/03/25 09:40:47;;;;;;;0.55;0.55;;;13.30;99.90;;;;;;4975452;28;20263;-76
2021/03/25 09:43:30;;;;;;;0.70;0.70;;;13.30;94.00;;;;;;4960654;28;20212;-76
2021/03/25 09:46:18;;;;;;;0.50;0.50;;;13.40;94.00;;;;;;4974741;28;20665;-75
2021/03/25 09:48:45;;;;;;;0.70;0.70;;;13.50;94.10;;;;;;4974855;28;20225;-76
2021/03/25 09:51:19;;;;;;;0.70;0.70;;;13.60;93.70;;;;;;4974996;28;20225;-76
2021/03/25 09:53:48;;;;;;;0.60;0.60;;;13.70;93.70;;;;;;4975116;28;20246;-75
2021/03/25 09:56:31;;;;;;;0.70;0.70;;;13.80;93.20;;;;;;4974553;28;20204;-75
2021/03/25 09:59:00;;;;;;;0.70;0.70;;;13.70;92.80;;;;;;4974781;28;20634;-76
2021/03/25 10:01:41;;;;;;;0.60;0.60;;;13.90;92.80;;;;;;4974640;28;20283;-77
2021/03/25 10:04:32;;;;;;;0.50;0.50;;;14.10;92.40;;;;;;4975347;28;20275;-75
2021/03/25 10:07:18;;;;;;;0.60;0.60;;;14.40;91.90;;;;;;4974568;28;20213;-74
2021/03/25 10:10:08;;;;;;;0.60;0.60;;;14.50;91.50;;;;;;4963117;28;20319;-74
2021/03/25 10:13:24;;;;;;;0.50;0.50;;;14.50;91.10;;;;;;4974350;28;20267;-74
2021/03/25 10:15:55;;;;;;;0.60;0.60;;;14.80;91.00;;;;;;4914077;29;20219;-75
2021/03/25 10:18:52;;;;;;;0.50;0.50;;;14.80;90.20;;;;;;4969892;28;20346;-75
2021/03/25 10:21:35;;;;;;;0.60;0.60;;;14.80;90.30;;;;;;4974363;28;20701;-74
2021/03/25 10:24:08;;;;;;;0.60;0.60;;;14.80;90.10;;;;;;4974231;28;20211;-75
2021/03/25 10:26:38;;;;;;;0.50;0.50;;;14.90;90.10;;;;;;4974070;28;20213;-75
2021/03/25 10:29:12;;;;;;;0.60;0.60;;;15.00;89.60;;;;;;4974454;28;20229;-75
2021/03/25 10:31:45;;;;;;;0.60;0.60;;;15.20;89.90;;;;;;4974506;28;20228;-75
2021/03/25 10:34:22;;;;;;;0.60;0.60;;;15.30;88.40;;;;;;4974650;28;20200;-73
2021/03/25 10:36:56;;;;;;;0.50;0.50;;;15.30;89.70;;;;;;4973974;28;20413;-75
2021/03/25 10:39:28;;;;;;;0.40;0.40;;;15.20;88.70;;;;;;4974300;28;20263;-75
2021/03/25 10:41:56;;;;;;;0.40;0.40;;;15.30;87.50;;;;;;4974186;28;20239;-75
2021/03/25 10:44:30;;;;;;;0.55;0.55;;;15.30;88.00;;;;;;4974041;28;20205;-75
2021/03/25 10:47:02;;;;;;;0.50;0.50;;;15.50;87.80;;;;;;4973748;28;20624;-75
2021/03/25 10:49:38;;;;;;;0.50;0.50;;;15.70;87.10;;;;;;4974091;28;20240;-75
2021/03/25 10:52:05;;;;;;;0.50;0.50;;;15.70;85.80;;;;;;4973834;28;20220;-74
2021/03/25 10:54:36;;;;;;;0.40;0.40;;;15.80;87.00;;;;;;4973839;28;20600;-76
2021/03/25 10:57:14;;;;;;;0.50;0.50;;;16.20;84.00;;;;;;4973441;28;20211;-76
2021/03/25 10:59:48;;;;;;;0.50;0.50;;;16.40;88.80;;;;;;4974068;28;20204;-75
2021/03/25 11:02:23;;;;;;;0.45;0.45;;;16.20;84.30;;;;;;4974072;28;20236;-75
2021/03/25 11:05:03;;;;;;;0.40;0.40;;;16.10;83.30;;;;;;4973386;28;20622;-76
2021/03/25 11:07:30;;;;;;;0.50;0.50;;;16.10;83.70;;;;;;4973574;28;20666;-76
2021/03/25 11:09:59;;;;;;;0.50;0.50;;;16.20;83.20;;;;;;4973406;28;20247;-76
2021/03/25 11:12:29;;;;;;;0.40;0.40;;;;;;;;;;4973193;28;20232;-75
2021/03/25 11:14:58;;;;;;;0.50;0.50;;;16.50;81.60;;;;;;4973281;28;20204;-75
2021/03/25 11:17:30;;;;;;;0.45;0.45;;;16.70;82.90;;;;;;4973390;28;20216;-76
2021/03/25 11:20:01;;;;;;;0.40;0.40;;;16.80;82.00;;;;;;4973482;28;20201;-74
2021/03/25 11:22:30;;;;;;;0.40;0.40;;;16.90;80.00;;;;;;4973208;28;20602;-75
2021/03/25 11:24:59;;;;;;;0.40;0.40;;;16.90;80.60;;;;;;4976999;28;20259;-73
2021/03/25 11:27:28;;;;;;;0.40;0.40;;;16.90;80.30;;;;;;4976487;28;20205;-74
2021/03/25 11:30:04;;;;;;;0.40;0.40;;;16.80;80.00;;;;;;4975134;28;20220;-73
2021/03/25 11:32:36;;;;;;;0.40;0.40;;;16.80;81.40;;;;;;4973079;28;20267;-73
2021/03/25 11:35:24;;;;;;;0.40;0.40;;;16.90;80.70;;;;;;4972853;28;20204;-73
2021/03/25 11:37:52;;;;;;;0.40;0.40;;;17.00;80.00;;;;;;4973056;28;20670;-73
2021/03/25 11:40:24;;;;;;;0.40;0.40;;;17.00;99.90;;;;;;4972875;28;20729;-73
2021/03/25 11:43:05;;;;;;;0.40;0.40;;;17.00;79.60;;;;;;4974137;28;20267;-73
2021/03/25 11:45:41;;;;;;;0.40;0.40;;;17.20;79.30;;;;;;4973645;28;20211;-73
2021/03/25 11:48:21;;;;;;;0.50;0.50;;;17.10;97.80;;;;;;4973378;28;20616;-73
2021/03/25 11:50:49;;;;;;;0.40;0.40;;;17.50;77.10;;;;;;4972953;28;20287;-73
2021/03/25 11:53:44;;;;;;;0.40;0.40;;;17.40;77.60;;;;;;4972982;28;20339;-74
2021/03/25 11:56:23;;;;;;;0.40;0.40;;;17.40;77.50;;;;;;4938893;28;20212;-74
2021/03/25 11:59:00;;;;;;;0.50;0.50;;;17.40;77.40;;;;;;4972223;28;20658;-73
2021/03/25 12:01:29;;;;;;;0.40;0.40;;;17.50;77.70;;;;;;4972665;28;20279;-72
2021/03/25 12:04:00;;;;;;;0.40;0.40;;;17.40;77.10;;;;;;4972620;28;20205;-72
2021/03/25 12:06:30;;;;;;;0.40;0.40;;;17.30;77.10;;;;;;4971786;28;20699;-72
2021/03/25 12:09:12;;;;;;;0.50;0.50;;;17.40;77.50;;;;;;4972375;28;20221;-72
2021/03/25 12:11:41;;;;;;;0.40;0.40;;;17.60;77.50;;;;;;4972398;28;20228;-74
2021/03/25 12:14:09;;;;;;;0.40;0.40;;;17.80;76.30;;;;;;4972880;28;20209;-71
2021/03/25 12:16:51;;;;;;;0.40;0.40;;;17.80;75.40;;;;;;4972075;28;20204;-72
2021/03/25 12:19:39;;;;;;;0.40;0.40;;;17.90;75.50;;;;;;4972628;28;20291;-74
2021/03/25 12:22:17;;;;;;;0.40;0.40;;;17.70;75.90;;;;;;4972346;28;20693;-74
2021/03/25 12:24:44;;;;;;;0.40;0.40;;;17.80;75.90;;;;;;4972031;28;20212;-72
2021/03/25 12:27:17;;;;;;;0.40;0.40;;;17.90;75.60;;;;;;4972272;28;20208;-74
2021/03/25 12:29:44;;;;;;;0.30;0.30;;;17.90;74.30;;;;;;4972262;28;20752;-74
2021/03/25 12:32:12;;;;;;;0.40;0.40;;;18.10;74.30;;;;;;4972198;28;20228;-74
2021/03/25 12:35:01;;;;;;;0.50;0.50;;;17.90;73.80;;;;;;4972039;28;20291;-73
2021/03/25 12:37:29;;;;;;;0.40;0.40;;;18.00;74.80;;;;;;4972201;28;20207;-73
2021/03/25 12:39:57;;;;;;;0.30;0.30;;;18.30;99.90;;;;;;4972445;28;20215;-73
2021/03/25 12:42:24;;;;;;;0.38;0.38;;;18.30;81.10;;;;;;4972176;28;20282;-72
2021/03/25 12:44:55;;;;;;;0.30;0.30;;;18.50;74.40;;;;;;4971916;28;20653;-71
2021/03/25 12:47:22;;;;;;;0.30;0.30;;;18.60;72.40;;;;;;4972182;28;20208;-73
2021/03/25 12:49:57;;;;;;;0.30;0.30;;;18.80;71.70;;;;;;4972216;28;20315;-72
2021/03/25 12:52:25;;;;;;;0.40;0.40;;;18.70;72.00;;;;;;4972243;28;20236;-73
2021/03/25 12:54:53;;;;;;;0.40;0.40;;;18.40;71.60;;;;;;4971909;28;20694;-73
2021/03/25 12:57:23;;;;;;;0.50;0.50;;;18.20;78.30;;;;;;4972213;28;20678;-72
2021/03/25 12:59:50;;;;;;;0.30;0.30;;;18.10;67.80;;;;;;4972173;28;20204;-72
2021/03/25 13:02:16;;;;;;;0.30;0.30;;;18.10;71.20;;;;;;4972106;28;20228;-72
2021/03/25 13:04:44;;;;;;;0.30;0.30;;;18.10;85.30;;;;;;4972266;28;20538;-73
2021/03/25 13:07:10;;;;;;;0.30;0.30;;;18.10;65.10;;;;;;4971982;28;20204;-73
2021/03/25 13:09:38;;;;;;;0.30;0.30;;;18.00;66.30;;;;;;4972080;28;20225;-72
2021/03/25 13:12:10;;;;;;;0.30;0.30;;;18.10;64.30;;;;;;4971958;28;20233;-73
2021/03/25 13:14:37;;;;;;;0.40;0.40;;;18.20;63.60;;;;;;4972158;28;20592;-73
2021/03/25 13:17:04;;;;;;;0.30;0.30;;;18.50;63.70;;;;;;4971786;28;20208;-73
2021/03/25 13:19:51;;;;;;;0.40;0.40;;;18.70;62.70;;;;;;4975794;28;20200;-73
2021/03/25 13:22:18;;;;;;;0.30;0.30;;;18.60;62.50;;;;;;4975431;28;20232;-72
2021/03/25 13:24:47;;;;;;;0.38;0.38;;;18.80;64.00;;;;;;4975216;28;20208;-73
2021/03/25 13:27:14;;;;;;;0.40;0.40;;;18.70;65.90;;;;;;4975405;28;20260;-73
2021/03/25 13:29:41;;;;;;;0.30;0.30;;;18.60;66.30;;;;;;4975252;28;20368;-72
2021/03/25 13:32:08;;;;;;;0.50;0.50;;;18.60;65.40;;;;;;4975228;28;20228;-73
2021/03/25 13:34:35;;;;;;;0.30;0.30;;;18.50;66.10;;;;;;4975195;28;20247;-73
2021/03/25 13:37:03;;;;;;;0.40;0.40;;;18.50;65.40;;;;;;4974990;28;20619;-72
2021/03/25 13:39:30;;;;;;;0.40;0.40;;;18.50;64.70;;;;;;4975242;28;20216;-73
2021/03/25 13:41:58;;;;;;;0.30;0.30;;;18.40;65.70;;;;;;4974903;28;20705;-73
2021/03/25 13:44:25;;;;;;;0.40;0.40;;;18.60;66.00;;;;;;4974911;28;20695;-73
2021/03/25 13:46:52;;;;;;;0.40;0.40;;;18.60;64.70;;;;;;4974644;28;20216;-73
2021/03/25 13:49:20;;;;;;;0.40;0.40;;;18.50;66.70;;;;;;4974988;28;20232;-73
2021/03/25 13:51:47;;;;;;;0.30;0.30;;;18.50;66.70;;;;;;4974908;28;20269;-73
2021/03/25 13:54:14;;;;;;;0.30;0.30;;;18.50;67.10;;;;;;4974667;28;20299;-73
2021/03/25 13:56:41;;;;;;;0.30;0.30;;;18.50;66.70;;;;;;4974823;28;20205;-73
2021/03/25 13:59:09;;;;;;;0.30;0.30;;;18.50;66.30;;;;;;4974902;28;20278;-73
2021/03/25 14:01:36;;;;;;;0.40;0.40;;;18.50;66.40;;;;;;4974868;28;20235;-74
2021/03/25 14:04:03;;;;;;;0.50;0.50;;;18.30;67.70;;;;;;4974582;28;20201;-73
2021/03/25 14:06:30;;;;;;;0.30;0.30;;;18.40;67.40;;;;;;4974413;28;20271;-73
2021/03/25 14:08:57;;;;;;;0.40;0.40;;;18.60;67.80;;;;;;4974507;28;20216;-73
2021/03/25 14:11:24;;;;;;;0.38;0.38;;;18.70;67.60;;;;;;4974362;28;20239;-73
2021/03/25 14:13:52;;;;;;;0.30;0.30;;;18.90;67.20;;;;;;4974500;28;20741;-73
2021/03/25 14:16:19;;;;;;;0.30;0.30;;;18.80;66.70;;;;;;4974309;28;20204;-73
2021/03/25 14:18:48;;;;;;;0.40;0.40;;;18.60;66.80;;;;;;4974495;28;20205;-73
2021/03/25 14:21:21;;;;;;;0.40;0.40;;;;;;;;;;4975077;28;20252;-72
2021/03/25 14:23:49;;;;;;;0.30;0.30;;;18.40;86.70;;;;;;4974356;28;20262;-72
2021/03/25 14:26:17;;;;;;;0.30;0.30;;;18.40;87.10;;;;;;4974487;28;20204;-72
2021/03/25 14:28:45;;;;;;;0.30;0.30;;;18.50;86.70;;;;;;4973716;28;20585;-72
2021/03/25 14:31:12;;;;;;;0.30;0.30;;;18.40;87.00;;;;;;4974354;28;20709;-72
2021/03/25 14:33:41;;;;;;;0.30;0.30;;;18.40;86.50;;;;;;4974241;28;20628;-72
2021/03/25 14:36:10;;;;;;;0.30;0.30;;;;;;;;;;4974359;28;20251;-73
2021/03/25 14:38:37;;;;;;;0.30;0.30;;;;;;;;;;4974164;28;20213;-73
2021/03/25 14:41:05;;;;;;;0.30;0.30;;;;;;;;;;4974463;28;20640;-73
2021/03/25 14:43:34;;;;;;;0.47;0.47;;;;;;;;;;4973884;28;20205;-73
2021/03/25 14:46:03;;;;;;;0.30;0.30;;;;;;;;;;4973936;28;20248;-73
2021/03/25 14:48:30;;;;;;;0.40;0.40;;;;;;;;;;4973933;28;20204;-73
2021/03/25 14:51:04;;;;;;;0.30;0.30;;;;;;;;;;4973651;28;20228;-73
2021/03/25 14:53:32;;;;;;;0.40;0.40;;;;;;;;;;4973891;28;20205;-73
2021/03/25 14:56:01;;;;;;;0.30;0.30;;;;;;;;;;4974104;28;20230;-73
2021/03/25 14:58:28;;;;;;;0.30;0.30;;;;;;;;;;4973640;28;20673;-73
2021/03/25 15:00:55;;;;;;;0.30;0.30;;;;;;;;;;4973716;28;20228;-73
2021/03/25 15:03:23;;;;;;;0.30;0.30;;;;;;;;;;4973561;28;20219;-73
2021/03/25 15:05:51;;;;;;;0.30;0.30;;;;;;;;;;4973904;28;20215;-73
2021/03/25 15:08:20;;;;;;;0.30;0.30;;;;;;;;;;4973970;28;20205;-72
2021/03/25 15:10:48;;;;;;;0.30;0.30;;;;;;;;;;4973616;28;20232;-73
2021/03/25 15:13:16;;;;;;;0.30;0.30;;;;;;;;;;4973483;28;20255;-73
2021/03/25 15:15:45;;;;;;;0.30;0.30;;;;;;;;;;4973366;28;20264;-73
2021/03/25 15:18:12;;;;;;;0.30;0.30;;;;;;;;;;4973573;28;20209;-73
2021/03/25 15:20:41;;;;;;;0.30;0.30;;;;;;;;;;4973242;28;20666;-73
2021/03/25 15:23:10;;;;;;;0.30;0.30;;;;;;;;;;4973257;28;20255;-74
2021/03/25 15:25:40;;;;;;;0.30;0.30;;;;;;;;;;4972936;28;20670;-73
2021/03/25 15:28:09;;;;;;;0.30;0.30;;;18.30;64.90;;;;;;4973242;28;20205;-73
2021/03/25 15:30:37;;;;;;;0.40;0.40;;;18.30;65.50;;;;;;4972951;28;20236;-74
2021/03/25 15:33:06;;;;;;;0.30;0.30;;;18.10;64.60;;;;;;4973313;28;20208;-73
2021/03/25 15:35:36;;;;;;;0.30;0.30;;;17.90;65.40;;;;;;4973089;28;20228;-73
2021/03/25 15:38:05;;;;;;;0.30;0.30;;;18.00;66.40;;;;;;4973039;28;20255;-74
2021/03/25 15:40:32;;;;;;;0.30;0.30;;;18.00;67.10;;;;;;4972529;28;20275;-73
2021/03/25 15:43:00;;;;;;;0.40;0.40;;;17.80;67.90;;;;;;4973465;28;20546;-73
2021/03/25 15:45:27;;;;;;;0.30;0.30;;;17.90;69.30;;;;;;4972973;28;20211;-73
2021/03/25 15:47:55;;;;;;;0.30;0.30;;;17.80;70.90;;;;;;4973133;28;20208;-73
2021/03/25 15:50:22;;;;;;;0.30;0.30;;;17.90;64.70;;;;;;4972756;28;20593;-73
2021/03/25 15:52:49;;;;;;;0.30;0.30;;;17.80;64.50;;;;;;4972929;28;20283;-73
2021/03/25 15:55:18;;;;;;;0.30;0.30;;;17.70;64.60;;;;;;4972555;28;20295;-73
2021/03/25 15:57:53;;;;;;;0.30;0.30;;;17.70;64.50;;;;;;4972769;28;20204;-73
2021/03/25 16:00:22;;;;;;;0.40;0.40;;;17.50;95.60;;;;;;4972709;28;20251;-73
2021/03/25 16:02:50;;;;;;;0.30;0.30;;;;;;;;;;4972849;28;20263;-73
2021/03/25 16:05:18;;;;;;;0.40;0.40;;;17.60;83.30;;;;;;4972416;28;20208;-74
2021/03/25 16:07:51;;;;;;;0.30;0.30;;;;;;;;;;4972669;28;20212;-73
2021/03/25 16:10:18;;;;;;;0.30;0.30;;;17.40;84.10;;;;;;4972391;28;20225;-73
2021/03/25 16:12:44;;;;;;;0.40;0.40;;;17.30;84.70;;;;;;4972747;28;20256;-73
2021/03/25 16:15:17;;;;;;;0.30;0.30;;;17.30;66.60;;;;;;4972290;28;20204;-74
2021/03/25 16:17:45;;;;;;;0.40;0.40;;;17.40;86.00;;;;;;4972641;28;20209;-73
2021/03/25 16:20:14;;;;;;;0.30;0.30;;;17.20;85.50;;;;;;4972246;28;20204;-73
2021/03/25 16:22:57;;;;;;;0.30;0.30;;;17.30;85.40;;;;;;4972442;28;20204;-73
2021/03/25 16:25:25;;;;;;;0.40;0.40;;;17.20;73.20;;;;;;4972299;28;20212;-74
2021/03/25 16:27:52;;;;;;;0.30;0.30;;;;;;;;;;4972485;28;20282;-74
2021/03/25 16:30:20;;;;;;;0.30;0.30;;;17.60;86.10;;;;;;4972207;28;20221;-73
2021/03/25 16:32:48;;;;;;;0.38;0.38;;;17.10;86.00;;;;;;4972271;28;20204;-73
2021/03/25 16:35:21;;;;;;;0.30;0.30;;;17.20;85.80;;;;;;4971899;28;20267;-73
2021/03/25 16:37:48;;;;;;;0.30;0.30;;;17.10;86.00;;;;;;4972365;28;20643;-73
2021/03/25 16:40:16;;;;;;;0.40;0.40;;;17.10;86.50;;;;;;4972363;28;20251;-73
2021/03/25 16:42:43;;;;;;;0.30;0.30;;;17.20;86.00;;;;;;4972454;28;20208;-73
2021/03/25 16:45:15;;;;;;;0.40;0.40;;;16.90;86.20;;;;;;4971803;28;20669;-74
2021/03/25 16:47:42;;;;;;;0.30;0.30;;;;;;;;;;4972128;28;20627;-73
2021/03/25 16:50:11;;;;;;;0.30;0.30;;;17.20;80.50;;;;;;4972221;28;20244;-73
2021/03/25 16:52:38;;;;;;;0.40;0.40;;;17.00;69.10;;;;;;4974022;28;20205;-73
2021/03/25 16:55:07;;;;;;;0.30;0.30;;;16.70;87.60;;;;;;4975776;28;20579;-73
2021/03/25 16:57:34;;;;;;;0.50;0.50;;;16.80;88.30;;;;;;4976422;28;20208;-73
2021/03/25 17:00:01;;;;;;;0.40;0.40;;;;;;;;;;4975998;28;20560;-74
2021/03/25 17:02:28;;;;;;;0.30;0.30;;;16.60;88.90;;;;;;4976120;28;20282;-73
2021/03/25 17:04:55;;;;;;;0.40;0.40;;;16.60;88.40;;;;;;4976025;28;20212;-73
2021/03/25 17:07:22;;;;;;;0.30;0.30;;;16.70;88.90;;;;;;4976309;28;20626;-73
2021/03/25 17:09:49;;;;;;;0.30;0.30;;;16.50;90.10;;;;;;4975790;28;20224;-73
2021/03/25 17:12:16;;;;;;;0.40;0.40;;;16.60;90.10;;;;;;4975784;28;20240;-73
2021/03/25 17:14:43;;;;;;;0.30;0.30;;;16.50;83.30;;;;;;4975331;28;20636;-73
2021/03/25 17:17:10;;;;;;;0.40;0.40;;;16.50;90.00;;;;;;4975770;28;20628;-73
2021/03/25 17:19:38;;;;;;;0.50;0.50;;;16.50;75.50;;;;;;4975286;28;20708;-73
2021/03/25 17:22:05;;;;;;;0.40;0.40;;;16.30;90.50;;;;;;4975561;28;20351;-74
2021/03/25 17:24:33;;;;;;;0.40;0.40;;;15.90;90.80;;;;;;4982972;28;20204;-77
2021/03/25 17:27:00;;;;;;;0.40;0.40;;;15.90;90.90;;;;;;4993608;28;20207;-76
2021/03/25 17:29:27;;;;;;;0.40;0.40;;;16.10;91.90;;;;;;4986453;28;20223;-76
2021/03/25 17:31:54;;;;;;;0.50;0.50;;;15.80;91.90;;;;;;4994903;28;20227;-77
2021/03/25 17:34:21;;;;;;;0.40;0.40;;;16.10;92.00;;;;;;4994826;28;20235;-77
2021/03/25 17:36:48;;;;;;;0.40;0.40;;;15.60;92.10;;;;;;4994217;28;20708;-76
2021/03/25 17:39:15;;;;;;;0.40;0.40;;;15.80;92.40;;;;;;4984527;28;20610;-76
2021/03/25 17:41:43;;;;;;;0.40;0.40;;;15.90;88.20;;;;;;4985330;28;20224;-71
2021/03/25 17:44:09;;;;;;;0.40;0.40;;;15.60;92.80;;;;;;4983852;28;20193;-72
2021/03/25 17:46:36;;;;;;;0.40;0.40;;;15.70;93.40;;;;;;4983769;28;20246;-73
2021/03/25 17:49:04;;;;;;;0.40;0.40;;;;;;;;;;4984952;28;20637;-73
2021/03/25 17:51:33;;;;;;;0.40;0.40;;;15.70;94.80;;;;;;4982444;28;20227;-72
2021/03/25 17:54:11;;;;;;;0.40;0.40;;;15.60;81.50;;;;;;4983476;28;20255;-73
2021/03/25 17:56:38;;;;;;;0.40;0.40;;;15.50;83.00;;;;;;4978586;28;20205;-74
2021/03/25 17:59:06;;;;;;;0.40;0.40;;;15.40;83.00;;;;;;4974854;28;20255;-74
2021/03/25 18:01:33;;;;;;;0.40;0.40;;;15.40;82.10;;;;;;4974421;28;20232;-74
2021/03/25 18:04:00;;;;;;;0.40;0.40;;;15.40;83.70;;;;;;4974006;28;20204;-76
2021/03/25 18:06:27;;;;;;;0.40;0.40;;;15.30;83.00;;;;;;4974192;28;20211;-72
2021/03/25 18:08:55;;;;;;;0.40;0.40;;;15.30;84.00;;;;;;4974415;28;20205;-72
2021/03/25 18:11:22;;;;;;;0.50;0.50;;;15.20;83.00;;;;;;4974164;28;20225;-73
2021/03/25 18:13:49;;;;;;;0.40;0.40;;;15.20;82.50;;;;;;4974436;28;20287;-73
2021/03/25 18:16:19;;;;;;;0.40;0.40;;;15.20;83.60;;;;;;4981846;28;20197;-73
2021/03/25 18:18:49;;;;;;;0.50;0.50;;;15.10;84.70;;;;;;4994168;28;20680;-73
2021/03/25 18:21:19;;;;;;;0.40;0.40;;;15.00;84.00;;;;;;4993973;28;20227;-73
2021/03/25 18:23:47;;;;;;;0.40;0.40;;;15.00;85.70;;;;;;4993878;28;20294;-74
2021/03/25 18:26:15;;;;;;;0.50;0.50;;;14.90;85.30;;;;;;4993637;28;20246;-73
2021/03/25 18:28:43;;;;;;;0.40;0.40;;;14.80;85.40;;;;;;4993913;28;20204;-72
2021/03/25 18:31:11;;;;;;;0.50;0.50;;;14.70;87.10;;;;;;4993556;28;20224;-72
2021/03/25 18:33:42;;;;;;;0.50;0.50;;;14.70;88.90;;;;;;4993571;28;20208;-73
2021/03/25 18:36:14;;;;;;;0.40;0.40;;;14.70;87.90;;;;;;4993385;28;20204;-74
2021/03/25 18:38:41;;;;;;;0.40;0.40;;;14.60;87.80;;;;;;4993888;28;20212;-74